Time;durP1;ratioP1;P1;durP2;ratioP2;P2;SDS_P1;SDS_P2;PMS_P1;PMS_P2;Temp;Humidity;BMP_temperature;BMP_pressure;BME280_temperature;BME280_humidity;BME280_pressure;Samples;Min_cycle;Max_cycle;Signal;HPM_P1;HPM_P2
2022/12/09 00:00:41;;;;;;;33.40;18.98;;;;;;;4.59;67.54;98929.13;5033056;28;20458;-79
2022/12/09 00:03:07;;;;;;;38.00;19.65;;;;;;;4.57;67.78;98930.03;5032789;28;20053;-78
2022/12/09 00:05:38;;;;;;;31.35;19.13;;;;;;;4.56;67.88;98923.13;5032604;28;20529;-78
2022/12/09 00:08:04;;;;;;;30.15;18.23;;;;;;;4.56;67.90;98923.13;5032781;28;20045;-78
2022/12/09 00:10:31;;;;;;;26.75;17.63;;;;;;;4.58;68.04;98923.06;5032791;28;20058;-78
2022/12/09 00:12:57;;;;;;;33.53;19.05;;;;;;;4.57;68.00;98924.81;5014798;28;20065;-78
2022/12/09 00:15:24;;;;;;;38.20;18.48;;;;;;;4.60;67.99;98930.81;5032491;28;20144;-78
2022/12/09 00:17:50;;;;;;;28.90;18.00;;;;;;;4.60;67.93;98923.81;5031181;28;20053;-78
2022/12/09 00:20:17;;;;;;;82.90;21.25;;;;;;;4.62;67.97;98926.38;5014619;28;20060;-79
2022/12/09 00:22:43;;;;;;;71.57;19.30;;;;;;;4.60;67.87;98921.22;5015051;28;20053;-78
2022/12/09 00:25:10;;;;;;;138.25;21.27;;;;;;;4.62;67.77;98923.75;5014576;28;20053;-78
2022/12/09 00:27:36;;;;;;;102.63;21.13;;;;;;;4.59;67.58;98932.56;5032241;28;20091;-78
2022/12/09 00:30:03;;;;;;;114.53;21.30;;;;;;;4.56;67.50;98922.28;5031540;28;20679;-78
2022/12/09 00:32:31;;;;;;;148.57;23.83;;;;;;;4.52;67.42;98918.97;5032193;28;20507;-78
2022/12/09 00:34:57;;;;;;;178.65;23.10;;;;;;;4.49;68.01;98929.53;5031810;28;20519;-78
2022/12/09 00:37:24;;;;;;;212.73;25.98;;;;;;;4.47;67.92;98923.56;5032019;28;20142;-79
2022/12/09 00:39:50;;;;;;;194.88;23.85;;;;;;;4.47;67.93;98930.50;5032147;28;20152;-78
2022/12/09 00:42:17;;;;;;;168.35;23.15;;;;;;;4.42;68.01;98928.97;5031895;28;20061;-79
2022/12/09 00:44:43;;;;;;;119.47;19.27;;;;;;;4.42;68.14;98925.53;5031847;28;20060;-78
2022/12/09 00:47:10;;;;;;;78.22;18.33;;;;;;;4.40;68.30;98919.53;5031810;28;20084;-78
2022/12/09 00:49:36;;;;;;;67.97;18.70;;;;;;;4.42;68.34;98925.53;5205722;22;20063;-82
2022/12/09 00:52:03;;;;;;;85.35;18.50;;;;;;;4.44;68.34;98918.47;5032279;28;20572;-83
2022/12/09 00:54:29;;;;;;;37.22;18.05;;;;;;;4.48;68.66;98916.59;5014089;28;20061;-84
2022/12/09 00:56:56;;;;;;;75.10;20.00;;;;;;;4.51;68.72;98917.28;5031122;28;20054;-86
2022/12/09 00:59:22;;;;;;;73.53;19.25;;;;;;;4.55;68.76;98915.38;5031607;28;20129;-86
2022/12/09 01:01:49;;;;;;;98.03;19.70;;;;;;;4.59;68.56;98916.94;5031584;28;20140;-86
2022/12/09 01:04:16;;;;;;;188.93;22.27;;;;;;;4.63;68.54;98918.47;5031749;28;20096;-85
2022/12/09 01:06:43;;;;;;;74.30;18.10;;;;;;;4.67;68.66;98911.34;5031157;28;20057;-83
2022/12/09 01:09:09;;;;;;;129.73;19.88;;;;;;;4.71;68.43;98919.91;5031649;28;20175;-83
2022/12/09 01:11:36;;;;;;;116.75;18.98;;;;;;;4.73;68.33;98918.91;5031622;28;20144;-85
2022/12/09 01:14:02;;;;;;;150.70;19.85;;;;;;;4.75;68.21;98917.06;5031540;28;20414;-85
2022/12/09 01:16:32;;;;;;;46.75;18.20;;;;;;;4.77;67.99;98923.06;5030912;28;20060;-83
2022/12/09 01:19:02;;;;;;;57.30;18.08;;;;;;;4.78;68.02;98931.72;5031283;28;20092;-85
2022/12/09 01:21:29;;;;;;;135.05;22.27;;;;;;;4.80;67.85;98935.97;5031567;28;20093;-86
2022/12/09 01:23:56;;;;;;;124.55;20.73;;;;;;;4.79;67.59;98931.66;5031353;28;20053;-85
2022/12/09 01:26:23;;;;;;;49.53;20.13;;;;;;;4.76;67.28;98937.03;5031000;28;20089;-86
2022/12/09 01:28:51;;;;;;;111.40;20.65;;;;;;;4.73;67.50;98934.56;5031172;28;20512;-85
2022/12/09 01:31:21;;;;;;;116.13;22.20;;;;;;;4.70;67.56;98937.28;5013714;28;20064;-82
2022/12/09 01:33:48;;;;;;;126.95;22.30;;;;;;;4.66;67.31;98928.78;5030971;28;20068;-85
2022/12/09 01:36:18;;;;;;;164.20;21.98;;;;;;;4.61;67.36;98927.28;5006843;28;20060;-85
2022/12/09 01:38:45;;;;;;;100.32;20.55;;;;;;;4.56;67.27;98924.88;5029645;28;20058;-84
2022/12/09 01:41:13;;;;;;;94.88;20.52;;;;;;;4.51;67.60;98932.94;5030051;28;20506;-85
2022/12/09 01:43:40;;;;;;;55.75;19.17;;;;;;;4.50;67.83;98931.25;5031388;28;20060;-85
2022/12/09 01:46:07;;;;;;;126.13;21.98;;;;;;;4.49;67.82;98932.13;5030891;28;20092;-83
2022/12/09 01:48:41;;;;;;;76.18;20.15;;;;;;;4.45;67.89;98924.53;5013351;28;20057;-85
2022/12/09 01:51:14;;;;;;;60.38;20.58;;;;;;;4.43;67.95;98935.88;5031125;28;20099;-82
2022/12/09 01:53:43;;;;;;;62.70;20.25;;;;;;;4.41;67.27;98924.66;5030817;28;20084;-85
2022/12/09 01:56:25;;;;;;;112.93;21.98;;;;;;;4.36;67.96;98931.00;5013525;28;20068;-85
2022/12/09 01:58:53;;;;;;;119.95;22.50;;;;;;;4.35;67.74;98927.56;5030840;28;20061;-84
2022/12/09 02:01:20;;;;;;;170.88;24.48;;;;;;;4.32;67.72;98929.44;5030993;28;20049;-84
2022/12/09 02:03:48;;;;;;;151.00;24.42;;;;;;;4.28;67.56;98927.00;5030838;28;20100;-85
2022/12/09 02:06:15;;;;;;;140.32;23.58;;;;;;;4.24;67.28;98925.44;5031088;28;20096;-86
2022/12/09 02:08:43;;;;;;;118.40;23.02;;;;;;;4.19;67.73;98924.81;5030599;28;20060;-85
2022/12/09 02:11:28;;;;;;;117.78;23.48;;;;;;;4.10;68.11;98920.81;5013333;28;20601;-86
2022/12/09 02:14:14;;;;;;;54.90;21.33;;;;;;;4.07;67.89;98917.53;5031078;28;20056;-83
2022/12/09 02:17:04;;;;;;;71.85;22.02;;;;;;;4.02;68.30;98921.16;5030718;28;20061;-84
2022/12/09 02:20:00;;;;;;;38.88;21.48;;;;;;;3.99;68.47;98916.09;5024266;28;20513;-85
2022/12/09 02:23:00;;;;;;;43.65;21.27;;;;;;;3.98;68.51;98917.00;5031154;28;20056;-85
2022/12/09 02:25:48;;;;;;;42.47;21.33;;;;;;;3.98;68.73;98917.00;5030669;28;20060;-85
2022/12/09 02:28:15;;;;;;;37.63;22.00;;;;;;;4.00;68.18;98911.75;5030982;28;20057;-84
2022/12/09 02:31:21;;;;;;;36.90;21.52;;;;;;;3.95;68.67;98909.31;5030655;28;20057;-85
2022/12/09 02:34:04;;;;;;;34.40;20.45;;;;;;;3.96;68.36;98910.19;5028857;28;20053;-84
2022/12/09 02:36:53;;;;;;;33.45;19.33;;;;;;;3.95;68.50;98904.13;5031176;28;20383;-86
2022/12/09 02:39:27;;;;;;;34.63;18.60;;;;;;;3.98;68.64;98909.19;5030734;28;20064;-85
2022/12/09 02:41:56;;;;;;;38.22;20.85;;;;;;;4.03;68.56;98903.78;5030859;28;20132;-85
2022/12/09 02:44:25;;;;;;;35.53;20.52;;;;;;;4.07;68.67;98905.31;5030575;28;20053;-83
2022/12/09 02:46:54;;;;;;;37.05;20.52;;;;;;;4.10;68.65;98902.59;5030770;28;20084;-86
2022/12/09 02:49:22;;;;;;;34.85;19.75;;;;;;;4.14;68.90;98903.28;5013116;28;20049;-82
2022/12/09 02:51:50;;;;;;;34.50;20.45;;;;;;;4.17;68.46;98898.81;5031012;28;20536;-85
2022/12/09 02:54:18;;;;;;;34.38;20.42;;;;;;;4.21;68.77;98896.91;5034852;28;20053;-83
2022/12/09 02:56:52;;;;;;;30.58;18.10;;;;;;;4.23;68.64;98889.84;5034566;28;20144;-81
2022/12/09 02:59:19;;;;;;;29.42;18.85;;;;;;;4.29;68.62;98893.94;5034548;28;20061;-85
2022/12/09 03:02:26;;;;;;;36.50;21.38;;;;;;;4.31;68.56;98884.31;5034798;28;20057;-84
2022/12/09 03:05:09;;;;;;;36.60;20.27;;;;;;;4.36;68.35;98889.31;5027284;28;20053;-84
2022/12/09 03:08:00;;;;;;;36.10;21.00;;;;;;;4.37;67.94;98885.81;5034709;28;20065;-85
2022/12/09 03:10:51;;;;;;;34.63;20.05;;;;;;;4.43;67.92;98881.16;5034341;28;20061;-81
2022/12/09 03:13:36;;;;;;;33.42;19.02;;;;;;;4.42;68.26;98892.47;5026617;28;20057;-83
2022/12/09 03:16:42;;;;;;;33.58;19.50;;;;;;;4.43;68.27;98882.91;5016702;28;20061;-85
2022/12/09 03:19:17;;;;;;;28.52;17.02;;;;;;;4.48;67.94;98886.16;5027038;28;20054;-85
2022/12/09 03:21:46;;;;;;;34.17;20.27;;;;;;;4.51;67.70;98890.38;5016961;28;20078;-86
2022/12/09 03:24:19;;;;;;;33.70;19.75;;;;;;;4.51;67.70;98883.41;5034202;28;20057;-86
2022/12/09 03:26:47;;;;;;;32.78;19.13;;;;;;;4.54;67.65;98890.25;5034164;28;20112;-86
2022/12/09 03:29:20;;;;;;;35.83;21.48;;;;;;;4.53;67.61;98888.56;5016444;28;20057;-86
2022/12/09 03:31:49;;;;;;;32.45;19.77;;;;;;;4.55;67.50;98886.72;5033703;28;20057;-82
2022/12/09 03:34:21;;;;;;;34.75;21.23;;;;;;;4.54;67.48;98878.06;5034189;28;20506;-86
2022/12/09 03:36:50;;;;;;;32.05;19.60;;;;;;;4.55;67.34;98876.28;5033769;28;20057;-85
2022/12/09 03:39:22;;;;;;;30.13;18.15;;;;;;;4.53;67.38;98871.13;5033998;28;20131;-85
2022/12/09 03:41:56;;;;;;;34.20;19.53;;;;;;;4.52;67.52;98869.44;5016183;28;20091;-84
2022/12/09 03:44:33;;;;;;;30.20;18.70;;;;;;;4.52;67.45;98863.41;5016095;28;20050;-85
2022/12/09 03:47:01;;;;;;;31.63;19.00;;;;;;;4.55;67.77;98863.25;5033536;28;20060;-86
2022/12/09 03:49:29;;;;;;;32.75;18.23;;;;;;;4.56;67.60;98859.72;5033606;28;20140;-86
2022/12/09 03:52:17;;;;;;;32.30;20.25;;;;;;;4.55;67.52;98861.50;5016235;28;20060;-86
2022/12/09 03:54:46;;;;;;;32.20;20.35;;;;;;;4.56;67.57;98862.31;5033799;28;20053;-85
2022/12/09 03:57:15;;;;;;;33.42;20.60;;;;;;;4.56;67.56;98855.38;5033474;28;20063;-85
2022/12/09 03:59:59;;;;;;;31.50;20.25;;;;;;;4.55;67.54;98858.03;5033680;28;20058;-85
2022/12/09 04:02:27;;;;;;;35.13;21.17;;;;;;;4.56;67.08;98855.38;5033573;28;20049;-86
2022/12/09 04:04:54;;;;;;;35.90;21.80;;;;;;;4.56;67.05;98852.75;5032295;28;20292;-85
2022/12/09 04:07:21;;;;;;;35.08;21.42;;;;;;;4.55;66.91;98852.81;5033219;28;20443;-86
2022/12/09 04:09:48;;;;;;;32.40;20.00;;;;;;;4.52;66.94;98850.38;5033255;28;20144;-86
2022/12/09 04:12:15;;;;;;;34.38;21.15;;;;;;;4.49;66.89;98843.53;5032978;28;20502;-86
2022/12/09 04:14:42;;;;;;;36.92;21.90;;;;;;;4.46;66.68;98843.69;5032806;28;20057;-86
2022/12/09 04:17:10;;;;;;;36.90;22.02;;;;;;;4.43;66.74;98847.28;5032876;28;20644;-86
2022/12/09 04:19:36;;;;;;;36.58;21.20;;;;;;;4.39;66.52;98837.06;5032754;28;20053;-86
2022/12/09 04:22:03;;;;;;;37.95;22.58;;;;;;;4.33;66.62;98837.38;5032906;28;20049;-85
2022/12/09 04:24:30;;;;;;;36.55;22.17;;;;;;;4.27;66.53;98833.28;5032867;28;20098;-82
2022/12/09 04:26:56;;;;;;;38.47;23.00;;;;;;;4.22;66.44;98843.88;5032840;28;20057;-86
2022/12/09 04:29:23;;;;;;;34.92;21.27;;;;;;;4.16;66.55;98839.78;5015545;28;20050;-87
2022/12/09 04:31:49;;;;;;;33.47;20.13;;;;;;;4.13;66.39;98841.72;5032873;28;20053;-83
2022/12/09 04:34:16;;;;;;;33.85;19.85;;;;;;;4.08;66.94;98836.72;5015032;28;20058;-86
2022/12/09 04:36:43;;;;;;;34.30;19.83;;;;;;;4.06;66.98;98835.06;5032559;28;20057;-86
2022/12/09 04:39:10;;;;;;;32.33;20.83;;;;;;;4.03;67.13;98831.72;5032502;28;20093;-84
2022/12/09 04:41:37;;;;;;;35.63;21.40;;;;;;;4.02;67.20;98832.63;5032716;28;20453;-87
2022/12/09 04:44:04;;;;;;;35.38;19.80;;;;;;;4.03;67.40;98834.31;5032415;28;20045;-86
2022/12/09 04:46:31;;;;;;;32.50;19.95;;;;;;;4.04;67.30;98835.16;5032281;28;20057;-84
2022/12/09 04:48:58;;;;;;;30.90;18.58;;;;;;;4.03;67.23;98834.31;5032213;28;20057;-86
2022/12/09 04:51:25;;;;;;;32.55;18.92;;;;;;;4.04;67.25;98830.78;5014630;28;20053;-86
2022/12/09 04:53:52;;;;;;;33.03;18.60;;;;;;;4.04;67.08;98833.38;5032367;28;20132;-85
2022/12/09 04:56:21;;;;;;;34.80;20.50;;;;;;;4.03;66.83;98834.31;5032007;28;20131;-85
2022/12/09 04:58:49;;;;;;;31.70;18.75;;;;;;;4.03;66.77;98836.06;5014309;28;20132;-85
2022/12/09 05:01:19;;;;;;;29.48;18.25;;;;;;;4.00;66.87;98842.25;5032047;28;20104;-86
2022/12/09 05:03:53;;;;;;;31.27;18.63;;;;;;;4.00;66.76;98844.03;5031966;28;20498;-85
2022/12/09 05:06:21;;;;;;;32.67;18.58;;;;;;;3.97;66.67;98844.16;5031636;28;20133;-85
2022/12/09 05:08:48;;;;;;;34.83;19.63;;;;;;;3.94;66.70;98847.75;5031832;28;20565;-83
2022/12/09 05:11:16;;;;;;;31.63;18.80;;;;;;;3.93;67.06;98847.81;5031627;28;20064;-86
2022/12/09 05:13:44;;;;;;;34.58;20.10;;;;;;;3.91;66.91;98853.09;5031948;28;20056;-86
2022/12/09 05:16:14;;;;;;;30.40;18.20;;;;;;;3.89;67.11;98847.13;5031542;28;20406;-86
2022/12/09 05:18:43;;;;;;;31.63;18.35;;;;;;;3.89;67.02;98849.72;5032248;28;20057;-86
2022/12/09 05:21:13;;;;;;;30.27;17.27;;;;;;;3.91;67.51;98848.72;5031642;28;20133;-86
2022/12/09 05:23:41;;;;;;;31.33;18.35;;;;;;;3.94;67.67;98854.69;5031629;28;20136;-85
2022/12/09 05:26:11;;;;;;;33.50;19.30;;;;;;;3.95;67.61;98843.38;5013768;28;20049;-86
2022/12/09 05:28:38;;;;;;;37.50;21.77;;;;;;;3.99;67.53;98847.53;5031366;28;20072;-86
2022/12/09 05:31:08;;;;;;;40.65;22.45;;;;;;;4.01;67.46;98849.16;5031751;28;20108;-83
2022/12/09 05:33:36;;;;;;;35.28;21.60;;;;;;;4.03;67.52;98851.69;5014028;28;20417;-86
2022/12/09 05:36:07;;;;;;;39.30;22.80;;;;;;;4.02;67.45;98853.47;5031546;28;20094;-85
2022/12/09 05:38:34;;;;;;;44.65;24.92;;;;;;;4.02;67.41;98843.03;5013534;28;20105;-84
2022/12/09 05:41:00;;;;;;;45.00;25.55;;;;;;;4.01;67.28;98845.72;5031096;28;20084;-87
2022/12/09 05:43:27;;;;;;;46.33;24.92;;;;;;;4.00;67.45;98838.81;5031575;28;20050;-85
2022/12/09 05:45:54;;;;;;;42.65;24.10;;;;;;;3.98;67.31;98841.50;5031172;28;20057;-86
2022/12/09 05:48:21;;;;;;;50.28;25.63;;;;;;;3.97;67.41;98845.03;5030880;28;20549;-86
2022/12/09 05:50:58;;;;;;;123.88;27.13;;;;;;;3.94;68.00;98850.34;5030985;28;20152;-85
2022/12/09 05:53:25;;;;;;;98.30;25.45;;;;;;;3.96;67.61;98845.09;5011438;28;20061;-85
2022/12/09 05:55:52;;;;;;;59.45;25.10;;;;;;;3.96;67.45;98843.31;5013339;28;20061;-85
2022/12/09 05:58:19;;;;;;;130.43;25.15;;;;;;;3.95;67.49;98836.41;5010700;28;20104;-85
2022/12/09 06:00:47;;;;;;;81.85;23.08;;;;;;;3.94;67.47;98837.34;5030813;28;20095;-84
2022/12/09 06:03:14;;;;;;;73.80;22.08;;;;;;;3.92;67.43;98839.16;5030489;28;20406;-83
2022/12/09 06:05:41;;;;;;;45.85;21.25;;;;;;;3.90;67.68;98841.81;5030641;28;20058;-86
2022/12/09 06:08:08;;;;;;;56.22;23.13;;;;;;;3.86;67.39;98845.50;5013151;28;20472;-84
2022/12/09 06:10:39;;;;;;;45.47;22.45;;;;;;;3.83;67.63;98845.63;5030467;28;20057;-86
2022/12/09 06:13:07;;;;;;;60.33;22.90;;;;;;;3.82;67.84;98845.69;5030603;28;20069;-83
2022/12/09 06:15:34;;;;;;;70.57;22.75;;;;;;;3.79;67.67;98836.25;5030570;28;20504;-86
2022/12/09 06:18:01;;;;;;;49.15;21.88;;;;;;;3.75;67.75;98832.94;5030475;28;20053;-84
2022/12/09 06:20:28;;;;;;;45.83;23.00;;;;;;;3.74;67.75;98833.84;5030679;28;20053;-86
2022/12/09 06:22:56;;;;;;;41.58;22.00;;;;;;;3.73;67.78;98832.16;5030643;28;20061;-85
2022/12/09 06:25:23;;;;;;;39.25;21.83;;;;;;;3.72;67.77;98833.06;5026306;28;20084;-84
2022/12/09 06:27:51;;;;;;;36.65;20.67;;;;;;;3.72;67.92;98832.22;5027245;28;20057;-81
2022/12/09 06:30:18;;;;;;;40.17;20.98;;;;;;;3.72;68.03;98840.88;5024473;28;20058;-82
2022/12/09 06:32:45;;;;;;;53.13;20.90;;;;;;;3.72;68.06;98842.63;5029029;28;20141;-80
2022/12/09 06:35:12;;;;;;;68.20;20.60;;;;;;;3.70;68.03;98845.28;5029462;28;20092;-81
2022/12/09 06:37:40;;;;;;;99.78;22.35;;;;;;;3.70;68.18;98842.69;5029246;28;20100;-82
2022/12/09 06:40:07;;;;;;;73.50;22.00;;;;;;;3.69;67.59;98835.81;5029596;28;20132;-82
2022/12/09 06:42:35;;;;;;;82.22;22.40;;;;;;;3.68;68.07;98839.31;5029541;28;20057;-82
2022/12/09 06:45:02;;;;;;;166.15;24.73;;;;;;;3.68;67.77;98844.53;5012098;28;20455;-82
2022/12/09 06:47:29;;;;;;;225.73;29.75;;;;;;;3.66;67.59;98841.13;5030266;28;20054;-82
2022/12/09 06:49:56;;;;;;;173.63;26.30;;;;;;;3.63;67.90;98841.28;5042424;23;20095;-78
2022/12/09 06:52:31;;;;;;;127.95;23.60;;;;;;;3.60;67.90;98838.81;5029157;28;20058;-79
2022/12/09 06:54:58;;;;;;;164.93;26.95;;;;;;;3.56;67.87;98839.84;5029235;28;20144;-78
2022/12/09 06:57:24;;;;;;;112.82;23.55;;;;;;;3.53;67.78;98838.22;5029280;28;20152;-79
2022/12/09 06:59:51;;;;;;;157.27;26.27;;;;;;;3.49;67.99;98840.13;5029047;28;20056;-79
2022/12/09 07:02:18;;;;;;;147.55;26.35;;;;;;;3.47;67.98;98836.72;5029175;28;20053;-79
2022/12/09 07:04:45;;;;;;;176.65;25.98;;;;;;;3.44;67.96;98836.84;5028981;28;20061;-79
2022/12/09 07:07:13;;;;;;;94.32;22.10;;;;;;;3.44;68.57;98846.44;5028913;28;20064;-79
2022/12/09 07:09:40;;;;;;;137.65;24.20;;;;;;;3.42;68.61;98835.22;5029199;28;20088;-78
2022/12/09 07:12:07;;;;;;;137.68;24.23;;;;;;;3.42;68.52;98838.69;5029205;28;20116;-78
2022/12/09 07:14:35;;;;;;;102.53;23.90;;;;;;;3.42;68.34;98840.44;5028715;28;20100;-78
2022/12/09 07:17:02;;;;;;;146.82;25.20;;;;;;;3.43;68.63;98844.75;5028798;28;20057;-79
2022/12/09 07:19:30;;;;;;;88.95;24.02;;;;;;;3.41;68.56;98837.00;5022726;28;20467;-78
2022/12/09 07:21:56;;;;;;;140.32;25.55;;;;;;;3.41;68.05;98838.75;5028718;28;20500;-78
2022/12/09 07:24:24;;;;;;;143.93;26.75;;;;;;;3.39;68.35;98841.41;5036900;28;20062;-78
2022/12/09 07:26:51;;;;;;;190.85;27.58;;;;;;;3.37;68.31;98845.84;5010090;28;20058;-78
2022/12/09 07:29:18;;;;;;;166.55;26.30;;;;;;;3.35;68.19;98850.25;5027786;28;20089;-79
2022/12/09 07:31:46;;;;;;;172.55;24.95;;;;;;;3.33;68.39;98846.88;5035523;28;20060;-78
2022/12/09 07:34:13;;;;;;;116.80;23.90;;;;;;;3.33;68.41;98846.88;5031953;28;20058;-79
2022/12/09 07:36:39;;;;;;;127.07;22.92;;;;;;;3.33;68.82;98854.69;5038008;28;20063;-79
2022/12/09 07:39:10;;;;;;;176.05;24.92;;;;;;;3.33;68.78;98839.09;5036016;28;20064;-79
2022/12/09 07:41:38;;;;;;;224.40;26.77;;;;;;;3.35;68.76;98842.44;5037087;28;20060;-79
2022/12/09 07:44:05;;;;;;;87.22;18.42;;;;;;;3.37;69.22;98856.25;5021380;28;20128;-79
2022/12/09 07:46:31;;;;;;;87.55;23.30;;;;;;;3.39;68.81;98854.41;5032264;28;20080;-78
2022/12/09 07:49:01;;;;;;;55.42;22.80;;;;;;;3.43;69.26;98855.97;5031491;28;20045;-78
2022/12/09 07:51:28;;;;;;;164.13;26.38;;;;;;;3.48;69.20;98859.22;5031451;28;20128;-79
2022/12/09 07:53:55;;;;;;;114.18;25.27;;;;;;;3.55;69.09;98864.19;5031674;28;20053;-79
2022/12/09 07:56:22;;;;;;;112.20;23.52;;;;;;;3.58;69.06;98859.69;5031250;28;20112;-78
2022/12/09 07:58:52;;;;;;;130.68;26.63;;;;;;;3.62;69.24;98860.38;5031250;28;20053;-78
2022/12/09 08:01:25;;;;;;;121.78;25.73;;;;;;;3.66;69.34;98872.38;5031220;28;20579;-79
2022/12/09 08:03:52;;;;;;;66.50;22.83;;;;;;;3.71;69.21;98865.22;5031832;28;20057;-79
2022/12/09 08:06:23;;;;;;;69.07;23.10;;;;;;;3.75;69.26;98868.53;5031981;28;20084;-79
2022/12/09 08:08:50;;;;;;;101.93;24.50;;;;;;;3.80;69.54;98871.78;5031849;28;20053;-80
2022/12/09 08:11:23;;;;;;;78.82;24.55;;;;;;;3.85;69.58;98869.81;5014332;28;20053;-80
2022/12/09 08:13:51;;;;;;;67.47;25.42;;;;;;;3.91;69.31;98871.31;5031842;28;20140;-79
2022/12/09 08:16:19;;;;;;;67.35;24.85;;;;;;;3.96;69.54;98869.34;5014426;28;20057;-79
2022/12/09 08:18:48;;;;;;;53.22;25.23;;;;;;;4.00;69.16;98876.09;5031607;28;20049;-79
2022/12/09 08:21:27;;;;;;;66.47;26.20;;;;;;;4.03;69.26;98877.72;5014360;28;20076;-80
2022/12/09 08:23:57;;;;;;;54.95;25.80;;;;;;;4.08;69.03;98878.41;5031534;28;20104;-79
2022/12/09 08:26:26;;;;;;;84.32;27.05;;;;;;;4.12;68.91;98881.69;5013742;28;20092;-79
2022/12/09 08:28:52;;;;;;;176.73;32.47;;;;;;;4.14;68.79;98877.25;5031442;28;20499;-80
2022/12/09 08:31:22;;;;;;;82.03;28.75;;;;;;;4.15;68.88;98874.59;5014076;28;20135;-79
2022/12/09 08:33:49;;;;;;;60.70;27.85;;;;;;;4.16;68.88;98878.03;5031672;28;20061;-79
2022/12/09 08:36:25;;;;;;;65.07;28.25;;;;;;;4.18;69.05;98884.00;5031153;28;20065;-80
2022/12/09 08:38:51;;;;;;;111.75;29.00;;;;;;;4.22;68.93;98880.34;5031178;28;20233;-79
2022/12/09 08:41:35;;;;;;;57.78;26.65;;;;;;;4.24;68.96;98877.69;5031105;28;20079;-80
2022/12/09 08:44:08;;;;;;;59.80;28.60;;;;;;;4.28;68.95;98882.72;5031459;28;20093;-79
2022/12/09 08:46:37;;;;;;;54.33;26.80;;;;;;;4.34;68.82;98883.34;5031063;28;20068;-79
2022/12/09 08:49:05;;;;;;;60.65;29.35;;;;;;;4.37;68.93;98885.81;5030748;28;20053;-79
2022/12/09 08:51:32;;;;;;;56.22;28.52;;;;;;;4.39;68.70;98891.78;5030445;28;20065;-79
2022/12/09 08:54:00;;;;;;;57.88;28.05;;;;;;;4.41;68.62;98884.75;5031199;28;20058;-79
2022/12/09 08:56:27;;;;;;;57.65;27.95;;;;;;;4.41;68.61;98880.38;5030823;28;20058;-79
2022/12/09 08:58:54;;;;;;;59.72;29.15;;;;;;;4.42;68.53;98884.66;5030627;28;20057;-79
2022/12/09 09:01:30;;;;;;;66.90;30.13;;;;;;;4.43;68.32;98878.56;5030773;28;20061;-79
2022/12/09 09:04:04;;;;;;;65.32;29.25;;;;;;;4.41;68.32;98888.19;5030739;28;20060;-79
2022/12/09 09:06:31;;;;;;;59.78;28.38;;;;;;;4.43;68.69;98888.13;5030781;28;20057;-79
2022/12/09 09:09:00;;;;;;;59.90;28.27;;;;;;;4.46;68.54;98885.38;5030770;28;20050;-79
2022/12/09 09:11:27;;;;;;;56.90;28.33;;;;;;;4.46;68.71;98874.09;5030482;28;20053;-79
2022/12/09 09:13:54;;;;;;;54.55;27.63;;;;;;;4.47;68.62;98881.84;5030575;28;20049;-79
2022/12/09 09:16:22;;;;;;;55.03;26.20;;;;;;;4.49;68.68;98890.44;5030331;28;20059;-80
2022/12/09 09:18:49;;;;;;;64.85;30.27;;;;;;;4.51;68.61;98886.00;5030409;28;20054;-79
2022/12/09 09:21:19;;;;;;;55.10;28.30;;;;;;;4.53;68.60;98884.16;5030759;28;20068;-79
2022/12/09 09:23:47;;;;;;;63.05;28.25;;;;;;;4.56;68.60;98891.84;5030567;28;20061;-80
2022/12/09 09:26:19;;;;;;;57.55;27.58;;;;;;;4.59;68.87;98890.03;5030290;28;20089;-79
2022/12/09 09:28:46;;;;;;;60.13;30.40;;;;;;;4.64;68.77;98893.28;5030053;28;20424;-79
2022/12/09 09:31:16;;;;;;;60.05;29.30;;;;;;;4.67;68.62;98893.09;5030388;28;20053;-80
2022/12/09 09:33:43;;;;;;;59.60;29.23;;;;;;;4.71;68.68;98893.81;5030389;28;20067;-80
2022/12/09 09:36:13;;;;;;;61.78;29.85;;;;;;;4.72;67.98;98893.75;5030184;28;20065;-79
2022/12/09 09:38:40;;;;;;;57.40;28.70;;;;;;;4.75;68.11;98892.78;5029925;28;20450;-79
2022/12/09 09:41:19;;;;;;;55.10;28.58;;;;;;;4.72;67.33;98898.97;5029909;28;20136;-79
2022/12/09 09:43:46;;;;;;;54.67;29.02;;;;;;;4.73;67.29;98902.41;5030319;28;20612;-80
2022/12/09 09:46:31;;;;;;;54.38;27.95;;;;;;;4.65;67.14;98892.34;5030071;28;20108;-80
2022/12/09 09:49:00;;;;;;;54.88;27.35;;;;;;;4.62;67.28;98898.56;5029816;28;20054;-79
2022/12/09 09:51:27;;;;;;;50.00;27.10;;;;;;;4.57;67.54;98900.53;5030053;28;20061;-79
2022/12/09 09:53:53;;;;;;;55.15;27.50;;;;;;;4.54;67.85;98898.91;5029832;28;20088;-79
2022/12/09 09:56:35;;;;;;;58.00;29.58;;;;;;;4.52;68.10;98895.53;5030042;28;20057;-79
2022/12/09 09:59:15;;;;;;;55.05;27.98;;;;;;;4.55;68.36;98892.78;5029814;28;20057;-79
2022/12/09 10:01:48;;;;;;;60.15;30.25;;;;;;;4.56;68.35;98891.84;5029111;28;20107;-80
2022/12/09 10:04:57;;;;;;;58.85;29.08;;;;;;;4.60;68.50;98889.13;5029718;28;20053;-79
2022/12/09 10:07:29;;;;;;;57.58;27.48;;;;;;;4.66;67.95;98886.22;5029733;28;20057;-80
2022/12/09 10:10:15;;;;;;;58.88;29.02;;;;;;;4.66;68.36;98888.81;5029712;28;20107;-80
2022/12/09 10:13:13;;;;;;;58.67;29.77;;;;;;;4.66;68.11;98883.59;5029495;28;20049;-79
2022/12/09 10:16:12;;;;;;;54.50;28.27;;;;;;;4.69;68.15;98886.94;5012626;28;20057;-80
2022/12/09 10:19:01;;;;;;;58.33;29.20;;;;;;;4.73;68.24;98890.22;5029205;28;20061;-79
2022/12/09 10:21:39;;;;;;;54.60;28.15;;;;;;;4.78;68.28;98883.03;5030018;28;20057;-79
2022/12/09 10:24:24;;;;;;;57.70;29.45;;;;;;;4.82;68.46;98886.31;5029687;28;20112;-79
2022/12/09 10:27:11;;;;;;;56.72;29.33;;;;;;;4.86;68.27;98887.03;5029261;28;20049;-79
2022/12/09 10:29:55;;;;;;;59.22;30.67;;;;;;;4.91;68.17;98882.44;5029411;28;20496;-79
2022/12/09 10:32:25;;;;;;;55.80;27.98;;;;;;;4.95;68.10;98886.59;5029409;28;20492;-79
2022/12/09 10:34:52;;;;;;;55.08;30.00;;;;;;;5.00;68.11;98886.38;5029384;28;20103;-79
2022/12/09 10:37:33;;;;;;;53.83;29.30;;;;;;;5.01;68.09;98886.28;5028957;28;20097;-79
2022/12/09 10:40:06;;;;;;;51.47;28.63;;;;;;;5.08;68.04;98879.00;5029169;28;20116;-79
2022/12/09 10:45:47;;;;;;;51.75;26.98;;;;;;;5.16;67.71;98881.28;4945970;29;20373;-79
2022/12/09 10:48:42;;;;;;;53.25;27.58;;;;;;;5.19;68.22;98879.34;5028642;28;20053;-79
2022/12/09 10:51:24;;;;;;;49.85;26.60;;;;;;;5.23;68.50;98880.03;5029286;28;20049;-79
2022/12/09 10:54:12;;;;;;;54.13;29.90;;;;;;;5.25;67.76;98880.81;5029259;28;20060;-79
2022/12/09 10:57:27;;;;;;;50.33;27.88;;;;;;;5.31;67.95;98874.47;5029184;28;20049;-80
2022/12/09 11:00:05;;;;;;;56.08;28.88;;;;;;;5.38;67.80;98873.22;4999338;28;20140;-79
2022/12/09 11:02:33;;;;;;;49.40;28.00;;;;;;;5.41;67.30;98869.59;5029084;28;20131;-79
2022/12/09 11:05:18;;;;;;;48.55;27.92;;;;;;;5.37;67.09;98866.31;5028853;28;20064;-79
2022/12/09 11:07:50;;;;;;;48.08;28.00;;;;;;;5.38;66.68;98862.78;5029077;28;20149;-79
2022/12/09 11:10:20;;;;;;;52.67;30.00;;;;;;;5.37;67.22;98862.84;5029076;28;20054;-79
2022/12/09 11:12:55;;;;;;;52.75;29.30;;;;;;;5.37;66.92;98868.06;5029961;28;20057;-79
2022/12/09 11:15:27;;;;;;;45.22;26.48;;;;;;;5.37;67.15;98866.31;5032722;28;20057;-79
2022/12/09 11:18:06;;;;;;;50.15;27.20;;;;;;;5.37;67.03;98863.72;5015266;28;20096;-79
2022/12/09 11:20:34;;;;;;;48.30;28.27;;;;;;;5.39;67.19;98858.41;5015204;28;20215;-79
2022/12/09 11:23:03;;;;;;;44.75;27.83;;;;;;;5.40;66.94;98860.09;5032834;28;20104;-79
2022/12/09 11:25:34;;;;;;;45.72;27.50;;;;;;;5.38;66.86;98859.34;5032501;28;20057;-79
2022/12/09 11:28:29;;;;;;;46.65;26.50;;;;;;;5.35;66.55;98860.34;5032760;28;20095;-79
2022/12/09 11:31:02;;;;;;;47.53;27.25;;;;;;;5.38;66.63;98861.94;5025402;28;20503;-79
2022/12/09 11:33:57;;;;;;;51.00;29.97;;;;;;;5.39;66.76;98853.19;5032349;28;20056;-79
2022/12/09 11:36:27;;;;;;;47.97;28.40;;;;;;;5.39;66.90;98853.19;5032594;28;20365;-79
2022/12/09 11:39:29;;;;;;;48.03;26.77;;;;;;;5.39;66.78;98851.44;5032252;28;20080;-79
2022/12/09 11:42:16;;;;;;;45.38;26.77;;;;;;;5.43;66.95;98855.59;5014751;28;20100;-79
2022/12/09 11:45:14;;;;;;;43.40;24.95;;;;;;;5.41;66.55;98856.56;5032353;28;20111;-79
2022/12/09 11:47:47;;;;;;;43.97;24.73;;;;;;;5.46;66.66;98852.78;5031959;28;20072;-80